sensor_id;sensor_type;location;lat;lon;timestamp;temperature;humidity
48686;DHT22;34485;51.536;3.816;2022-11-15T00:01:47;9.90;99.90
48686;DHT22;34485;51.536;3.816;2022-11-15T00:04:12;10.00;99.90
48686;DHT22;34485;51.536;3.816;2022-11-15T00:06:38;10.00;99.90
48686;DHT22;34485;51.536;3.816;2022-11-15T00:09:03;10.00;99.90
48686;DHT22;34485;51.536;3.816;2022-11-15T00:11:29;10.00;99.90
48686;DHT22;34485;51.536;3.816;2022-11-15T00:13:56;10.10;99.90
48686;DHT22;34485;51.536;3.816;2022-11-15T00:16:22;10.10;99.90
48686;DHT22;34485;51.536;3.816;2022-11-15T00:18:48;10.20;99.90
48686;DHT22;34485;51.536;3.816;2022-11-15T00:21:14;10.20;99.90
48686;DHT22;34485;51.536;3.816;2022-11-15T00:23:40;10.20;99.90
48686;DHT22;34485;51.536;3.816;2022-11-15T00:26:07;10.20;99.90
48686;DHT22;34485;51.536;3.816;2022-11-15T00:33:29;10.20;99.90
48686;DHT22;34485;51.536;3.816;2022-11-15T00:36:00;10.30;99.90
48686;DHT22;34485;51.536;3.816;2022-11-15T00:38:30;10.40;99.90
48686;DHT22;34485;51.536;3.816;2022-11-15T00:40:56;10.40;99.90
48686;DHT22;34485;51.536;3.816;2022-11-15T00:43:22;10.40;99.90
48686;DHT22;34485;51.536;3.816;2022-11-15T00:45:47;10.40;99.90
48686;DHT22;34485;51.536;3.816;2022-11-15T00:48:13;10.40;99.90
48686;DHT22;34485;51.536;3.816;2022-11-15T00:50:38;10.40;99.90
48686;DHT22;34485;51.536;3.816;2022-11-15T00:53:04;10.40;99.90
48686;DHT22;34485;51.536;3.816;2022-11-15T00:55:30;10.40;99.90
48686;DHT22;34485;51.536;3.816;2022-11-15T00:57:55;10.40;99.90
48686;DHT22;34485;51.536;3.816;2022-11-15T01:00:21;10.40;99.90
48686;DHT22;34485;51.536;3.816;2022-11-15T01:02:46;10.50;99.90
48686;DHT22;34485;51.536;3.816;2022-11-15T01:05:12;10.50;99.90
48686;DHT22;34485;51.536;3.816;2022-11-15T01:07:38;10.50;99.90
48686;DHT22;34485;51.536;3.816;2022-11-15T01:10:04;10.50;99.90
48686;DHT22;34485;51.536;3.816;2022-11-15T01:12:30;10.50;99.90
48686;DHT22;34485;51.536;3.816;2022-11-15T01:14:57;10.50;99.90
48686;DHT22;34485;51.536;3.816;2022-11-15T01:17:22;10.50;99.90
48686;DHT22;34485;51.536;3.816;2022-11-15T01:19:48;10.50;99.90
48686;DHT22;34485;51.536;3.816;2022-11-15T01:22:14;10.50;99.90
48686;DHT22;34485;51.536;3.816;2022-11-15T01:24:39;10.50;99.90
48686;DHT22;34485;51.536;3.816;2022-11-15T01:27:05;10.60;99.90
48686;DHT22;34485;51.536;3.816;2022-11-15T01:29:31;10.60;99.90
48686;DHT22;34485;51.536;3.816;2022-11-15T01:31:56;10.60;99.90
48686;DHT22;34485;51.536;3.816;2022-11-15T01:34:22;10.60;99.90
48686;DHT22;34485;51.536;3.816;2022-11-15T01:36:47;10.70;99.90
48686;DHT22;34485;51.536;3.816;2022-11-15T01:39:13;10.70;99.90
48686;DHT22;34485;51.536;3.816;2022-11-15T01:41:39;10.60;99.90
48686;DHT22;34485;51.536;3.816;2022-11-15T01:47:29;10.60;99.90
48686;DHT22;34485;51.536;3.816;2022-11-15T01:49:59;10.70;99.90
48686;DHT22;34485;51.536;3.816;2022-11-15T01:52:28;10.70;99.90
48686;DHT22;34485;51.536;3.816;2022-11-15T01:55:04;10.80;99.90
48686;DHT22;34485;51.536;3.816;2022-11-15T01:57:30;10.80;99.90
48686;DHT22;34485;51.536;3.816;2022-11-15T01:59:57;10.80;99.90
48686;DHT22;34485;51.536;3.816;2022-11-15T02:02:24;10.80;99.90
48686;DHT22;34485;51.536;3.816;2022-11-15T02:04:50;10.80;99.90
48686;DHT22;34485;51.536;3.816;2022-11-15T02:07:18;10.90;99.90
48686;DHT22;34485;51.536;3.816;2022-11-15T02:09:45;10.90;99.90
48686;DHT22;34485;51.536;3.816;2022-11-15T02:12:14;10.90;99.90
48686;DHT22;34485;51.536;3.816;2022-11-15T02:14:43;10.90;99.90
48686;DHT22;34485;51.536;3.816;2022-11-15T02:31:29;11.00;99.90
48686;DHT22;34485;51.536;3.816;2022-11-15T02:34:11;11.00;99.90
48686;DHT22;34485;51.536;3.816;2022-11-15T02:39:33;11.10;99.90
48686;DHT22;34485;51.536;3.816;2022-11-15T02:42:02;11.10;99.90
48686;DHT22;34485;51.536;3.816;2022-11-15T02:44:39;11.10;99.90
48686;DHT22;34485;51.536;3.816;2022-11-15T02:47:10;11.10;99.90
48686;DHT22;34485;51.536;3.816;2022-11-15T02:49:52;11.10;99.90
48686;DHT22;34485;51.536;3.816;2022-11-15T02:52:21;11.10;99.90
48686;DHT22;34485;51.536;3.816;2022-11-15T02:54:59;11.10;99.90
48686;DHT22;34485;51.536;3.816;2022-11-15T02:57:51;11.00;99.90
48686;DHT22;34485;51.536;3.816;2022-11-15T03:00:19;11.10;99.90
48686;DHT22;34485;51.536;3.816;2022-11-15T03:08:57;11.10;99.90
48686;DHT22;34485;51.536;3.816;2022-11-15T03:11:24;11.10;99.90
48686;DHT22;34485;51.536;3.816;2022-11-15T03:14:21;11.10;99.90
48686;DHT22;34485;51.536;3.816;2022-11-15T03:21:55;11.10;99.90
48686;DHT22;34485;51.536;3.816;2022-11-15T03:24:22;11.10;99.90
48686;DHT22;34485;51.536;3.816;2022-11-15T03:26:51;11.10;99.90
48686;DHT22;34485;51.536;3.816;2022-11-15T03:29:21;11.10;99.90
48686;DHT22;34485;51.536;3.816;2022-11-15T03:31:51;11.10;99.90
48686;DHT22;34485;51.536;3.816;2022-11-15T03:34:23;11.10;99.90
48686;DHT22;34485;51.536;3.816;2022-11-15T03:36:51;11.00;99.90
48686;DHT22;34485;51.536;3.816;2022-11-15T03:39:18;11.10;99.90
48686;DHT22;34485;51.536;3.816;2022-11-15T03:44:54;11.00;99.90
48686;DHT22;34485;51.536;3.816;2022-11-15T03:47:29;11.00;99.90
48686;DHT22;34485;51.536;3.816;2022-11-15T03:50:19;11.00;99.90
48686;DHT22;34485;51.536;3.816;2022-11-15T03:52:46;11.00;99.90
48686;DHT22;34485;51.536;3.816;2022-11-15T03:55:16;11.00;99.90
48686;DHT22;34485;51.536;3.816;2022-11-15T03:57:42;10.90;99.90
48686;DHT22;34485;51.536;3.816;2022-11-15T04:00:08;10.80;99.90
48686;DHT22;34485;51.536;3.816;2022-11-15T04:02:34;10.80;99.90
48686;DHT22;34485;51.536;3.816;2022-11-15T04:04:59;10.70;99.90
48686;DHT22;34485;51.536;3.816;2022-11-15T04:07:25;10.60;99.90
48686;DHT22;34485;51.536;3.816;2022-11-15T04:09:51;10.60;99.90
48686;DHT22;34485;51.536;3.816;2022-11-15T04:12:30;10.60;99.90
48686;DHT22;34485;51.536;3.816;2022-11-15T04:15:13;10.50;99.90
48686;DHT22;34485;51.536;3.816;2022-11-15T04:17:56;10.40;99.90
48686;DHT22;34485;51.536;3.816;2022-11-15T04:20:30;10.40;99.90
48686;DHT22;34485;51.536;3.816;2022-11-15T04:23:22;10.40;99.90
48686;DHT22;34485;51.536;3.816;2022-11-15T04:26:16;10.30;99.90
48686;DHT22;34485;51.536;3.816;2022-11-15T04:28:42;10.30;99.90
48686;DHT22;34485;51.536;3.816;2022-11-15T04:31:27;10.30;99.90
48686;DHT22;34485;51.536;3.816;2022-11-15T04:33:53;10.30;99.90
48686;DHT22;34485;51.536;3.816;2022-11-15T04:36:19;10.20;99.90
48686;DHT22;34485;51.536;3.816;2022-11-15T04:39:03;10.20;99.90
48686;DHT22;34485;51.536;3.816;2022-11-15T04:41:29;10.20;99.90
48686;DHT22;34485;51.536;3.816;2022-11-15T04:43:55;10.20;99.90
48686;DHT22;34485;51.536;3.816;2022-11-15T04:46:21;10.20;99.90
48686;DHT22;34485;51.536;3.816;2022-11-15T04:48:47;10.10;99.90
48686;DHT22;34485;51.536;3.816;2022-11-15T04:51:13;10.10;99.90
48686;DHT22;34485;51.536;3.816;2022-11-15T04:53:38;10.10;99.90
48686;DHT22;34485;51.536;3.816;2022-11-15T04:56:04;10.10;99.90
48686;DHT22;34485;51.536;3.816;2022-11-15T04:58:29;10.10;99.90
48686;DHT22;34485;51.536;3.816;2022-11-15T05:00:55;10.00;99.90
48686;DHT22;34485;51.536;3.816;2022-11-15T05:03:21;10.00;99.90
48686;DHT22;34485;51.536;3.816;2022-11-15T05:06:05;10.00;99.90
48686;DHT22;34485;51.536;3.816;2022-11-15T05:08:32;10.00;99.90
48686;DHT22;34485;51.536;3.816;2022-11-15T05:10:58;9.90;99.90
48686;DHT22;34485;51.536;3.816;2022-11-15T05:13:23;9.90;99.90
48686;DHT22;34485;51.536;3.816;2022-11-15T05:15:49;9.80;99.90
48686;DHT22;34485;51.536;3.816;2022-11-15T05:18:14;9.80;99.90
48686;DHT22;34485;51.536;3.816;2022-11-15T05:20:40;9.80;99.90
48686;DHT22;34485;51.536;3.816;2022-11-15T05:23:06;9.80;99.90
48686;DHT22;34485;51.536;3.816;2022-11-15T05:25:31;9.70;99.90
48686;DHT22;34485;51.536;3.816;2022-11-15T05:27:57;9.70;99.90
48686;DHT22;34485;51.536;3.816;2022-11-15T05:30:23;9.70;99.90
48686;DHT22;34485;51.536;3.816;2022-11-15T05:32:49;9.60;99.90
48686;DHT22;34485;51.536;3.816;2022-11-15T05:35:39;9.60;99.90
48686;DHT22;34485;51.536;3.816;2022-11-15T05:38:05;9.60;99.90
48686;DHT22;34485;51.536;3.816;2022-11-15T05:40:31;9.50;99.90
48686;DHT22;34485;51.536;3.816;2022-11-15T05:42:57;9.50;99.90
48686;DHT22;34485;51.536;3.816;2022-11-15T05:45:25;9.40;99.90
48686;DHT22;34485;51.536;3.816;2022-11-15T05:47:52;9.40;99.90
48686;DHT22;34485;51.536;3.816;2022-11-15T05:50:19;9.40;99.90
48686;DHT22;34485;51.536;3.816;2022-11-15T05:52:46;9.40;99.90
48686;DHT22;34485;51.536;3.816;2022-11-15T05:55:12;9.30;99.90
48686;DHT22;34485;51.536;3.816;2022-11-15T05:57:38;9.30;99.90
48686;DHT22;34485;51.536;3.816;2022-11-15T06:00:04;9.30;99.90
48686;DHT22;34485;51.536;3.816;2022-11-15T06:02:30;9.30;99.90
48686;DHT22;34485;51.536;3.816;2022-11-15T06:04:56;9.30;99.90
48686;DHT22;34485;51.536;3.816;2022-11-15T06:07:21;9.30;99.90
48686;DHT22;34485;51.536;3.816;2022-11-15T06:09:47;9.30;99.90
48686;DHT22;34485;51.536;3.816;2022-11-15T06:12:13;9.20;99.90
48686;DHT22;34485;51.536;3.816;2022-11-15T06:14:38;9.10;99.90
48686;DHT22;34485;51.536;3.816;2022-11-15T06:17:04;9.10;99.90
48686;DHT22;34485;51.536;3.816;2022-11-15T06:19:30;9.10;99.90
48686;DHT22;34485;51.536;3.816;2022-11-15T06:21:59;9.10;99.90
48686;DHT22;34485;51.536;3.816;2022-11-15T06:24:25;9.10;99.90
48686;DHT22;34485;51.536;3.816;2022-11-15T06:26:50;9.10;99.90
48686;DHT22;34485;51.536;3.816;2022-11-15T06:29:16;9.10;99.90
48686;DHT22;34485;51.536;3.816;2022-11-15T06:31:41;9.00;99.90
48686;DHT22;34485;51.536;3.816;2022-11-15T06:34:07;9.10;99.90
48686;DHT22;34485;51.536;3.816;2022-11-15T06:36:35;9.10;99.90
48686;DHT22;34485;51.536;3.816;2022-11-15T06:39:02;9.00;99.90
48686;DHT22;34485;51.536;3.816;2022-11-15T06:41:27;9.10;99.90
48686;DHT22;34485;51.536;3.816;2022-11-15T06:43:53;9.10;99.90
48686;DHT22;34485;51.536;3.816;2022-11-15T06:46:19;9.10;99.90
48686;DHT22;34485;51.536;3.816;2022-11-15T06:48:44;9.10;99.90
48686;DHT22;34485;51.536;3.816;2022-11-15T06:51:10;9.10;99.90
48686;DHT22;34485;51.536;3.816;2022-11-15T06:53:36;9.00;99.90
48686;DHT22;34485;51.536;3.816;2022-11-15T06:56:03;9.10;99.90
48686;DHT22;34485;51.536;3.816;2022-11-15T06:58:29;9.00;99.90
48686;DHT22;34485;51.536;3.816;2022-11-15T07:01:07;9.00;99.90
48686;DHT22;34485;51.536;3.816;2022-11-15T07:03:40;9.00;99.90
48686;DHT22;34485;51.536;3.816;2022-11-15T07:06:07;9.00;99.90
48686;DHT22;34485;51.536;3.816;2022-11-15T07:08:34;9.00;99.90
48686;DHT22;34485;51.536;3.816;2022-11-15T07:11:03;9.00;99.90
48686;DHT22;34485;51.536;3.816;2022-11-15T07:13:30;9.00;99.90
48686;DHT22;34485;51.536;3.816;2022-11-15T07:16:01;9.00;99.90
48686;DHT22;34485;51.536;3.816;2022-11-15T07:18:26;9.00;99.90
48686;DHT22;34485;51.536;3.816;2022-11-15T07:20:52;9.00;99.90
48686;DHT22;34485;51.536;3.816;2022-11-15T07:23:18;9.00;99.90
48686;DHT22;34485;51.536;3.816;2022-11-15T07:25:43;9.00;99.90
48686;DHT22;34485;51.536;3.816;2022-11-15T07:28:09;9.10;99.90
48686;DHT22;34485;51.536;3.816;2022-11-15T07:30:35;9.10;99.90
48686;DHT22;34485;51.536;3.816;2022-11-15T07:33:01;9.10;99.90
48686;DHT22;34485;51.536;3.816;2022-11-15T07:35:27;9.10;99.90
48686;DHT22;34485;51.536;3.816;2022-11-15T07:37:58;9.10;99.90
48686;DHT22;34485;51.536;3.816;2022-11-15T07:40:25;9.10;99.90
48686;DHT22;34485;51.536;3.816;2022-11-15T07:42:51;9.10;99.90
48686;DHT22;34485;51.536;3.816;2022-11-15T07:45:24;9.10;99.90
48686;DHT22;34485;51.536;3.816;2022-11-15T07:47:52;9.10;99.90
48686;DHT22;34485;51.536;3.816;2022-11-15T07:50:18;9.10;99.90
48686;DHT22;34485;51.536;3.816;2022-11-15T07:52:44;9.10;99.90
48686;DHT22;34485;51.536;3.816;2022-11-15T07:55:10;9.10;99.90
48686;DHT22;34485;51.536;3.816;2022-11-15T07:57:35;9.10;99.90
48686;DHT22;34485;51.536;3.816;2022-11-15T08:00:02;9.10;99.90
48686;DHT22;34485;51.536;3.816;2022-11-15T08:02:28;9.20;99.90
48686;DHT22;34485;51.536;3.816;2022-11-15T08:04:53;9.20;99.90
48686;DHT22;34485;51.536;3.816;2022-11-15T08:07:19;9.20;99.90
48686;DHT22;34485;51.536;3.816;2022-11-15T08:09:44;9.20;99.90
48686;DHT22;34485;51.536;3.816;2022-11-15T08:12:10;9.30;99.90
48686;DHT22;34485;51.536;3.816;2022-11-15T08:14:36;9.20;99.90
48686;DHT22;34485;51.536;3.816;2022-11-15T08:17:01;9.30;99.90
48686;DHT22;34485;51.536;3.816;2022-11-15T08:19:27;9.30;99.90
48686;DHT22;34485;51.536;3.816;2022-11-15T08:21:52;9.30;99.90
48686;DHT22;34485;51.536;3.816;2022-11-15T08:24:18;9.30;99.90
48686;DHT22;34485;51.536;3.816;2022-11-15T08:26:44;9.40;99.90
48686;DHT22;34485;51.536;3.816;2022-11-15T08:29:09;9.40;99.90
48686;DHT22;34485;51.536;3.816;2022-11-15T08:31:36;9.50;99.90
48686;DHT22;34485;51.536;3.816;2022-11-15T08:34:03;9.50;99.90
48686;DHT22;34485;51.536;3.816;2022-11-15T08:36:29;9.60;99.90
48686;DHT22;34485;51.536;3.816;2022-11-15T08:38:55;9.70;99.90
48686;DHT22;34485;51.536;3.816;2022-11-15T08:41:40;9.90;99.90
48686;DHT22;34485;51.536;3.816;2022-11-15T08:44:06;10.00;99.90
48686;DHT22;34485;51.536;3.816;2022-11-15T08:46:32;10.10;99.90
48686;DHT22;34485;51.536;3.816;2022-11-15T08:48:57;10.20;99.90
48686;DHT22;34485;51.536;3.816;2022-11-15T08:51:23;10.40;99.90
48686;DHT22;34485;51.536;3.816;2022-11-15T08:53:49;10.60;99.90
48686;DHT22;34485;51.536;3.816;2022-11-15T08:56:15;10.70;99.90
48686;DHT22;34485;51.536;3.816;2022-11-15T08:58:41;10.80;99.90
48686;DHT22;34485;51.536;3.816;2022-11-15T09:01:15;10.90;99.90
48686;DHT22;34485;51.536;3.816;2022-11-15T09:03:41;11.00;99.90
48686;DHT22;34485;51.536;3.816;2022-11-15T09:06:07;11.20;99.90
48686;DHT22;34485;51.536;3.816;2022-11-15T09:08:33;11.20;99.90
48686;DHT22;34485;51.536;3.816;2022-11-15T09:11:03;11.20;99.90
48686;DHT22;34485;51.536;3.816;2022-11-15T09:13:29;11.20;99.90
48686;DHT22;34485;51.536;3.816;2022-11-15T09:15:57;11.10;99.90
48686;DHT22;34485;51.536;3.816;2022-11-15T09:18:24;11.00;99.90
48686;DHT22;34485;51.536;3.816;2022-11-15T09:20:49;11.10;99.90
48686;DHT22;34485;51.536;3.816;2022-11-15T09:23:15;11.20;99.90
48686;DHT22;34485;51.536;3.816;2022-11-15T09:25:41;11.30;99.90
48686;DHT22;34485;51.536;3.816;2022-11-15T09:28:07;11.60;99.90
48686;DHT22;34485;51.536;3.816;2022-11-15T09:30:33;11.90;99.90
48686;DHT22;34485;51.536;3.816;2022-11-15T09:33:02;11.90;99.90
48686;DHT22;34485;51.536;3.816;2022-11-15T09:35:31;11.80;99.90
48686;DHT22;34485;51.536;3.816;2022-11-15T09:37:57;11.80;99.90
48686;DHT22;34485;51.536;3.816;2022-11-15T09:40:23;11.70;99.90
48686;DHT22;34485;51.536;3.816;2022-11-15T09:43:02;11.50;99.90
48686;DHT22;34485;51.536;3.816;2022-11-15T09:45:38;11.30;99.90
48686;DHT22;34485;51.536;3.816;2022-11-15T09:51:03;11.20;99.90
48686;DHT22;34485;51.536;3.816;2022-11-15T09:56:03;11.50;99.90
48686;DHT22;34485;51.536;3.816;2022-11-15T10:01:20;11.80;99.90
48686;DHT22;34485;51.536;3.816;2022-11-15T10:03:48;11.90;99.90
48686;DHT22;34485;51.536;3.816;2022-11-15T10:06:22;11.90;99.90
48686;DHT22;34485;51.536;3.816;2022-11-15T10:09:12;11.90;99.90
48686;DHT22;34485;51.536;3.816;2022-11-15T10:11:40;11.90;99.90
48686;DHT22;34485;51.536;3.816;2022-11-15T10:14:12;12.10;99.90
48686;DHT22;34485;51.536;3.816;2022-11-15T10:16:49;12.20;99.90
48686;DHT22;34485;51.536;3.816;2022-11-15T10:26:48;11.90;99.90
48686;DHT22;34485;51.536;3.816;2022-11-15T10:29:21;11.90;99.90
48686;DHT22;34485;51.536;3.816;2022-11-15T10:31:47;11.90;99.90
48686;DHT22;34485;51.536;3.816;2022-11-15T10:34:15;11.90;99.90
48686;DHT22;34485;51.536;3.816;2022-11-15T10:37:00;11.90;99.90
48686;DHT22;34485;51.536;3.816;2022-11-15T10:39:27;12.00;99.90
48686;DHT22;34485;51.536;3.816;2022-11-15T10:41:53;12.10;99.90
48686;DHT22;34485;51.536;3.816;2022-11-15T10:44:23;12.20;99.90
48686;DHT22;34485;51.536;3.816;2022-11-15T10:49:28;12.30;99.90
48686;DHT22;34485;51.536;3.816;2022-11-15T10:51:55;12.30;99.90
48686;DHT22;34485;51.536;3.816;2022-11-15T10:57:06;12.40;99.90
48686;DHT22;34485;51.536;3.816;2022-11-15T10:59:36;12.50;99.90
48686;DHT22;34485;51.536;3.816;2022-11-15T11:02:08;12.50;99.90
48686;DHT22;34485;51.536;3.816;2022-11-15T11:04:51;12.50;99.90
48686;DHT22;34485;51.536;3.816;2022-11-15T11:07:25;12.60;99.90
48686;DHT22;34485;51.536;3.816;2022-11-15T11:10:18;12.60;99.90
48686;DHT22;34485;51.536;3.816;2022-11-15T11:12:44;12.70;99.90
48686;DHT22;34485;51.536;3.816;2022-11-15T11:15:14;12.80;99.90
48686;DHT22;34485;51.536;3.816;2022-11-15T11:26:11;12.80;99.90
48686;DHT22;34485;51.536;3.816;2022-11-15T11:32:33;12.90;99.90
48686;DHT22;34485;51.536;3.816;2022-11-15T11:43:48;13.10;99.90
48686;DHT22;34485;51.536;3.816;2022-11-15T11:49:03;13.10;99.90
48686;DHT22;34485;51.536;3.816;2022-11-15T11:52:38;13.00;99.90
48686;DHT22;34485;51.536;3.816;2022-11-15T11:54:41;12.90;99.90
48686;DHT22;34485;51.536;3.816;2022-11-15T11:57:25;12.80;99.90
48686;DHT22;34485;51.536;3.816;2022-11-15T12:00:09;12.70;99.90
48686;DHT22;34485;51.536;3.816;2022-11-15T12:03:08;12.70;99.90
48686;DHT22;34485;51.536;3.816;2022-11-15T12:05:44;12.70;99.90
48686;DHT22;34485;51.536;3.816;2022-11-15T12:11:28;12.70;99.90
48686;DHT22;34485;51.536;3.816;2022-11-15T12:14:01;12.70;99.90
48686;DHT22;34485;51.536;3.816;2022-11-15T12:16:30;12.80;99.90
48686;DHT22;34485;51.536;3.816;2022-11-15T12:19:01;12.90;99.90
48686;DHT22;34485;51.536;3.816;2022-11-15T12:24:35;13.00;99.90
48686;DHT22;34485;51.536;3.816;2022-11-15T12:29:39;12.90;99.90
48686;DHT22;34485;51.536;3.816;2022-11-15T12:32:25;13.00;99.90
48686;DHT22;34485;51.536;3.816;2022-11-15T12:34:52;13.00;99.90
48686;DHT22;34485;51.536;3.816;2022-11-15T12:40:23;13.00;99.90
48686;DHT22;34485;51.536;3.816;2022-11-15T12:45:41;12.90;99.90
48686;DHT22;34485;51.536;3.816;2022-11-15T12:59:00;12.80;99.90
48686;DHT22;34485;51.536;3.816;2022-11-15T13:06:48;12.90;99.90
48686;DHT22;34485;51.536;3.816;2022-11-15T13:12:02;13.00;99.90
48686;DHT22;34485;51.536;3.816;2022-11-15T13:25:33;13.00;99.90
48686;DHT22;34485;51.536;3.816;2022-11-15T13:30:57;13.00;99.90
48686;DHT22;34485;51.536;3.816;2022-11-15T13:35:55;13.00;99.90
48686;DHT22;34485;51.536;3.816;2022-11-15T13:40:51;12.90;99.90
48686;DHT22;34485;51.536;3.816;2022-11-15T13:43:27;12.90;99.90
48686;DHT22;34485;51.536;3.816;2022-11-15T13:46:13;12.90;99.90
48686;DHT22;34485;51.536;3.816;2022-11-15T13:48:41;12.90;99.90
48686;DHT22;34485;51.536;3.816;2022-11-15T13:51:20;12.90;99.90
48686;DHT22;34485;51.536;3.816;2022-11-15T13:56:20;12.80;99.90
48686;DHT22;34485;51.536;3.816;2022-11-15T13:58:46;12.80;99.90
48686;DHT22;34485;51.536;3.816;2022-11-15T14:01:19;12.80;99.90
48686;DHT22;34485;51.536;3.816;2022-11-15T14:03:55;12.80;99.90
48686;DHT22;34485;51.536;3.816;2022-11-15T14:06:24;12.80;99.90
48686;DHT22;34485;51.536;3.816;2022-11-15T14:09:47;12.80;99.90
48686;DHT22;34485;51.536;3.816;2022-11-15T14:11:55;12.80;99.90
48686;DHT22;34485;51.536;3.816;2022-11-15T14:14:23;12.80;99.90
48686;DHT22;34485;51.536;3.816;2022-11-15T14:16:54;12.80;99.90
48686;DHT22;34485;51.536;3.816;2022-11-15T14:24:33;12.70;99.90
48686;DHT22;34485;51.536;3.816;2022-11-15T14:27:17;12.70;99.90
48686;DHT22;34485;51.536;3.816;2022-11-15T14:29:43;12.50;99.90
48686;DHT22;34485;51.536;3.816;2022-11-15T14:32:17;12.40;99.90
48686;DHT22;34485;51.536;3.816;2022-11-15T14:34:44;12.30;99.90
48686;DHT22;34485;51.536;3.816;2022-11-15T14:37:22;12.10;99.90
48686;DHT22;34485;51.536;3.816;2022-11-15T14:39:48;12.00;99.90
48686;DHT22;34485;51.536;3.816;2022-11-15T14:42:14;12.00;99.90
48686;DHT22;34485;51.536;3.816;2022-11-15T14:44:40;11.90;99.90
48686;DHT22;34485;51.536;3.816;2022-11-15T14:47:05;11.90;99.90
48686;DHT22;34485;51.536;3.816;2022-11-15T14:49:31;12.00;99.90
48686;DHT22;34485;51.536;3.816;2022-11-15T14:51:56;12.00;99.90
48686;DHT22;34485;51.536;3.816;2022-11-15T14:54:22;11.90;99.90
48686;DHT22;34485;51.536;3.816;2022-11-15T14:56:47;11.90;99.90
48686;DHT22;34485;51.536;3.816;2022-11-15T14:59:13;11.80;99.90
48686;DHT22;34485;51.536;3.816;2022-11-15T15:01:38;11.80;99.90
48686;DHT22;34485;51.536;3.816;2022-11-15T15:04:04;11.80;99.90
48686;DHT22;34485;51.536;3.816;2022-11-15T15:06:30;11.80;99.90
48686;DHT22;34485;51.536;3.816;2022-11-15T15:08:56;11.70;99.90
48686;DHT22;34485;51.536;3.816;2022-11-15T15:11:24;11.70;99.90
48686;DHT22;34485;51.536;3.816;2022-11-15T15:13:51;11.60;99.90
48686;DHT22;34485;51.536;3.816;2022-11-15T15:16:18;11.60;99.90
48686;DHT22;34485;51.536;3.816;2022-11-15T15:18:43;11.50;99.90
48686;DHT22;34485;51.536;3.816;2022-11-15T15:21:28;11.50;99.90
48686;DHT22;34485;51.536;3.816;2022-11-15T15:23:54;11.50;99.90
48686;DHT22;34485;51.536;3.816;2022-11-15T15:26:20;11.40;99.90
48686;DHT22;34485;51.536;3.816;2022-11-15T15:28:46;11.40;99.90
48686;DHT22;34485;51.536;3.816;2022-11-15T15:31:14;11.40;99.90
48686;DHT22;34485;51.536;3.816;2022-11-15T15:33:39;11.40;99.90
48686;DHT22;34485;51.536;3.816;2022-11-15T15:36:10;11.40;99.90
48686;DHT22;34485;51.536;3.816;2022-11-15T15:38:36;11.40;99.90
48686;DHT22;34485;51.536;3.816;2022-11-15T15:41:02;11.30;99.90
48686;DHT22;34485;51.536;3.816;2022-11-15T15:43:28;11.20;99.90
48686;DHT22;34485;51.536;3.816;2022-11-15T15:45:53;11.20;99.90
48686;DHT22;34485;51.536;3.816;2022-11-15T15:48:19;11.20;99.90
48686;DHT22;34485;51.536;3.816;2022-11-15T15:50:45;11.20;99.90
48686;DHT22;34485;51.536;3.816;2022-11-15T15:53:11;11.20;99.90
48686;DHT22;34485;51.536;3.816;2022-11-15T15:55:38;11.20;99.90
48686;DHT22;34485;51.536;3.816;2022-11-15T15:58:04;11.20;99.90
48686;DHT22;34485;51.536;3.816;2022-11-15T16:00:30;11.20;99.90
48686;DHT22;34485;51.536;3.816;2022-11-15T16:02:58;11.20;99.90
48686;DHT22;34485;51.536;3.816;2022-11-15T16:05:24;11.20;99.90
48686;DHT22;34485;51.536;3.816;2022-11-15T16:07:50;11.20;99.90
48686;DHT22;34485;51.536;3.816;2022-11-15T16:12:47;11.20;99.90
48686;DHT22;34485;51.536;3.816;2022-11-15T16:15:13;11.10;99.90
48686;DHT22;34485;51.536;3.816;2022-11-15T16:17:43;11.10;99.90
48686;DHT22;34485;51.536;3.816;2022-11-15T16:20:36;11.20;99.90
48686;DHT22;34485;51.536;3.816;2022-11-15T16:23:05;11.20;99.90
48686;DHT22;34485;51.536;3.816;2022-11-15T16:25:37;11.20;99.90
48686;DHT22;34485;51.536;3.816;2022-11-15T16:28:03;11.10;99.90
48686;DHT22;34485;51.536;3.816;2022-11-15T16:30:29;11.20;99.90
48686;DHT22;34485;51.536;3.816;2022-11-15T16:32:55;11.20;99.90
48686;DHT22;34485;51.536;3.816;2022-11-15T16:35:20;11.20;99.90
48686;DHT22;34485;51.536;3.816;2022-11-15T16:37:46;11.20;99.90
48686;DHT22;34485;51.536;3.816;2022-11-15T16:42:43;11.30;99.90
48686;DHT22;34485;51.536;3.816;2022-11-15T16:45:11;11.30;99.90
48686;DHT22;34485;51.536;3.816;2022-11-15T16:47:39;11.30;99.90
48686;DHT22;34485;51.536;3.816;2022-11-15T16:50:04;11.30;99.90
48686;DHT22;34485;51.536;3.816;2022-11-15T16:52:30;11.30;99.90
48686;DHT22;34485;51.536;3.816;2022-11-15T16:54:56;11.30;99.90
48686;DHT22;34485;51.536;3.816;2022-11-15T16:57:21;11.30;99.90
48686;DHT22;34485;51.536;3.816;2022-11-15T16:59:47;11.30;99.90
48686;DHT22;34485;51.536;3.816;2022-11-15T17:02:12;11.40;99.90
48686;DHT22;34485;51.536;3.816;2022-11-15T17:04:38;11.40;99.90
48686;DHT22;34485;51.536;3.816;2022-11-15T17:07:04;11.40;99.90
48686;DHT22;34485;51.536;3.816;2022-11-15T17:09:30;11.40;99.90
48686;DHT22;34485;51.536;3.816;2022-11-15T17:11:55;11.40;99.90
48686;DHT22;34485;51.536;3.816;2022-11-15T17:14:21;11.40;99.90
48686;DHT22;34485;51.536;3.816;2022-11-15T17:16:46;11.40;99.90
48686;DHT22;34485;51.536;3.816;2022-11-15T17:19:13;11.40;99.90
48686;DHT22;34485;51.536;3.816;2022-11-15T17:21:39;11.40;99.90
48686;DHT22;34485;51.536;3.816;2022-11-15T17:24:05;11.40;99.90
48686;DHT22;34485;51.536;3.816;2022-11-15T17:26:31;11.40;99.90
48686;DHT22;34485;51.536;3.816;2022-11-15T17:28:57;11.40;99.90
48686;DHT22;34485;51.536;3.816;2022-11-15T17:31:23;11.50;99.90
48686;DHT22;34485;51.536;3.816;2022-11-15T17:33:49;11.50;99.90
48686;DHT22;34485;51.536;3.816;2022-11-15T17:36:15;11.50;99.90
48686;DHT22;34485;51.536;3.816;2022-11-15T17:38:41;11.50;99.90
48686;DHT22;34485;51.536;3.816;2022-11-15T17:41:11;11.50;99.90
48686;DHT22;34485;51.536;3.816;2022-11-15T17:43:37;11.50;99.90
48686;DHT22;34485;51.536;3.816;2022-11-15T17:46:17;11.50;99.90
48686;DHT22;34485;51.536;3.816;2022-11-15T17:48:44;11.50;99.90
48686;DHT22;34485;51.536;3.816;2022-11-15T17:51:12;11.50;99.90
48686;DHT22;34485;51.536;3.816;2022-11-15T17:53:40;11.50;99.90
48686;DHT22;34485;51.536;3.816;2022-11-15T17:56:08;11.60;99.90
48686;DHT22;34485;51.536;3.816;2022-11-15T17:58:34;11.50;99.90
48686;DHT22;34485;51.536;3.816;2022-11-15T18:01:18;11.60;99.90
48686;DHT22;34485;51.536;3.816;2022-11-15T18:03:44;11.60;99.90
48686;DHT22;34485;51.536;3.816;2022-11-15T18:06:11;11.60;99.90
48686;DHT22;34485;51.536;3.816;2022-11-15T18:08:38;11.60;99.90
48686;DHT22;34485;51.536;3.816;2022-11-15T18:11:18;11.60;99.90
48686;DHT22;34485;51.536;3.816;2022-11-15T18:13:46;11.60;99.90
48686;DHT22;34485;51.536;3.816;2022-11-15T18:16:15;11.60;99.90